Terminal Aerodrome Forecast
Issued by NWS Cleveland, OH

Home | Current Version | Previous Version | Graphics & Text | Print | Product List | Glossary On
Versions: 1 2 3 4 5 6 7 8 9 10 11 12 13 14 15 16 17 18 19 20 21 22 23 24 25 26 27 28 29 30 31 32 33
418
FTUS41 KCLE 192329
TAFTOL
TAF
KTOL 192329Z 2000/2024 10004KT 4SM BR VCSH SCT008 OVC012
      TEMPO 2000/2004 3SM BR BKN008
     FM200400 00000KT 3SM BR BKN008
      TEMPO 2004/2008 2SM BR BKN006
     FM200800 00000KT 2SM BR BKN006
      TEMPO 2009/2013 1/2SM FG BKN002
     FM201300 00000KT 6SM BR BKN006 OVC025
     FM201500 21004KT P6SM BKN025
     FM201800 21005KT P6SM SCT025 BKN035=

USA.gov is the U.S. government's official web portal to all federal, state and local government web resources and services.